Time;durP1;ratioP1;P1;durP2;ratioP2;P2;SDS_P1;SDS_P2;PMS_P1;PMS_P2;Temp;Humidity;BMP_temperature;BMP_pressure;BME280_temperature;BME280_humidity;BME280_pressure;Samples;Min_cycle;Max_cycle;Signal;HPM_P1;HPM_P2
2021/04/22 00:02:09;;;;;;;3.90;2.95;;;10.70;99.90;;;10.15;74.81;100990.34;5020398;28;20149;-49
2021/04/22 00:04:36;;;;;;;3.83;3.38;;;10.70;99.90;;;10.12;75.12;100994.97;5041201;28;20206;-48
2021/04/22 00:07:02;;;;;;;3.65;2.88;;;10.70;99.90;;;10.10;74.98;100987.28;5045980;28;20045;-49
2021/04/22 00:09:28;;;;;;;5.15;2.90;;;10.60;99.90;;;10.06;75.38;100985.06;5047207;28;20044;-49
2021/04/22 00:11:54;;;;;;;4.13;2.75;;;10.70;99.90;;;10.03;75.42;100980.13;5046933;28;20037;-45
2021/04/22 00:14:20;;;;;;;3.42;2.75;;;10.60;99.90;;;9.99;75.61;100979.53;5047049;28;20028;-47
2021/04/22 00:16:47;;;;;;;3.15;2.85;;;10.60;99.90;;;9.94;75.83;100976.50;5046849;28;20489;-47
2021/04/22 00:19:13;;;;;;;5.93;3.22;;;10.50;99.90;;;9.91;75.41;100976.78;5047292;28;20120;-51
2021/04/22 00:21:39;;;;;;;4.32;3.05;;;10.50;99.90;;;9.87;75.67;100972.78;5047002;28;20519;-48
2021/04/22 00:24:06;;;;;;;3.38;2.92;;;10.40;99.90;;;9.79;75.98;100976.03;5046436;28;20124;-50
2021/04/22 00:26:32;;;;;;;5.03;3.10;;;10.40;99.90;;;9.76;76.21;100967.63;5031074;28;20160;-47
2021/04/22 00:28:58;;;;;;;7.38;3.63;;;10.30;99.90;;;9.70;76.38;100958.56;5053515;28;20337;-45
2021/04/22 00:31:25;;;;;;;3.58;3.13;;;10.30;99.90;;;9.71;76.60;100964.59;5053614;28;20090;-45
2021/04/22 00:33:51;;;;;;;5.05;3.25;;;10.30;99.90;;;9.69;76.22;100956.91;5053671;28;20029;-45
2021/04/22 00:36:17;;;;;;;3.90;3.50;;;10.20;99.90;;;9.67;76.79;100960.59;5053591;28;20106;-46
2021/04/22 00:38:43;;;;;;;5.13;3.33;;;10.20;99.90;;;9.64;76.43;100957.28;5053731;28;20041;-47
2021/04/22 00:41:10;;;;;;;4.63;3.97;;;10.20;99.90;;;9.62;76.43;100955.75;5053853;28;20169;-49
2021/04/22 00:43:36;;;;;;;4.72;3.42;;;10.20;99.90;;;9.61;76.78;100951.50;5053228;28;20052;-48
2021/04/22 00:46:03;;;;;;;4.15;3.45;;;10.20;99.90;;;9.69;76.37;100948.28;5035163;28;20045;-45
2021/04/22 00:48:29;;;;;;;6.68;3.63;;;10.20;99.90;;;9.73;76.41;100952.28;5053598;28;20037;-46
2021/04/22 00:50:57;;;;;;;8.90;4.50;;;10.30;99.90;;;9.75;76.28;100955.56;5053734;28;20106;-45
2021/04/22 00:53:24;;;;;;;4.85;3.38;;;10.30;99.90;;;9.75;76.50;100955.56;5053584;28;20384;-50
2021/04/22 00:55:52;;;;;;;5.07;4.03;;;10.30;99.90;;;9.77;76.64;100949.28;5053783;28;20021;-46
2021/04/22 00:58:18;;;;;;;5.45;3.47;;;10.30;99.90;;;9.76;76.43;100947.66;5053278;28;20032;-47
2021/04/22 01:00:52;;;;;;;4.15;3.75;;;10.30;99.90;;;9.73;76.73;100944.47;5053888;28;20033;-46
2021/04/22 01:03:18;;;;;;;5.80;3.47;;;10.30;99.90;;;9.73;76.76;100947.06;5053568;28;20041;-51
2021/04/22 01:05:49;;;;;;;5.38;4.88;;;10.30;99.90;;;9.73;76.77;100947.06;5053211;28;20368;-48
2021/04/22 01:08:16;;;;;;;6.10;4.82;;;10.30;99.90;;;9.72;76.89;100950.63;5053467;28;20044;-51
2021/04/22 01:10:42;;;;;;;7.25;4.30;;;10.30;99.90;;;9.70;77.14;100950.75;5035587;28;20060;-48
2021/04/22 01:13:09;;;;;;;6.25;4.07;;;10.20;99.90;;;9.65;76.87;100945.94;5053198;28;20033;-50
2021/04/22 01:15:36;;;;;;;5.05;4.60;;;10.20;99.90;;;9.62;76.91;100943.56;5053150;28;20523;-49
2021/04/22 01:18:05;;;;;;;4.70;4.25;;;10.20;99.90;;;9.59;76.87;100950.81;5053192;28;20041;-47
2021/04/22 01:20:40;;;;;;;6.32;5.47;;;10.10;99.90;;;9.58;77.88;100944.78;5053264;28;20163;-46
2021/04/22 01:23:07;;;;;;;8.10;5.30;;;10.10;99.90;;;9.56;77.23;100938.88;5053159;28;20192;-45
2021/04/22 01:25:42;;;;;;;4.93;4.45;;;10.10;99.90;;;9.56;77.97;100938.88;5053028;28;20058;-45
2021/04/22 01:28:13;;;;;;;6.82;4.90;;;10.10;99.90;;;9.56;77.27;100938.88;5053179;28;20156;-48
2021/04/22 01:30:49;;;;;;;4.95;4.43;;;10.10;99.90;;;9.53;77.60;100941.72;5053135;28;20480;-48
2021/04/22 01:33:19;;;;;;;6.85;5.60;;;10.10;99.90;;;9.54;77.42;100938.19;5053258;28;20040;-47
2021/04/22 01:35:49;;;;;;;4.80;4.25;;;10.10;99.90;;;9.53;77.51;100935.69;5035489;28;20041;-47
2021/04/22 01:38:17;;;;;;;8.48;4.82;;;10.10;99.90;;;9.50;77.69;100936.78;5050656;28;20047;-45
2021/04/22 01:40:44;;;;;;;5.05;4.55;;;10.10;99.90;;;9.50;77.73;100936.78;5031992;28;20037;-50
2021/04/22 01:43:10;;;;;;;8.07;4.85;;;10.10;99.90;;;9.48;78.11;100936.06;5049627;28;20048;-50
2021/04/22 01:45:37;;;;;;;6.18;5.53;;;10.00;99.90;;;9.46;78.15;100935.38;5049804;28;20132;-45
2021/04/22 01:48:05;;;;;;;5.90;4.22;;;10.00;99.90;;;9.42;78.43;100947.00;5050013;28;20037;-44
2021/04/22 01:50:35;;;;;;;7.65;4.82;;;10.00;99.90;;;9.40;78.52;100941.09;5049601;28;20078;-45
2021/04/22 01:53:02;;;;;;;6.25;3.83;;;10.00;99.90;;;9.38;78.26;100944.78;5031806;28;20045;-43
2021/04/22 01:55:36;;;;;;;4.05;3.40;;;9.90;99.90;;;9.39;78.71;100949.03;5049776;28;20049;-47
2021/04/22 01:58:03;;;;;;;4.57;3.33;;;9.90;99.90;;;9.34;78.84;100945.97;5049517;28;20033;-48
2021/04/22 02:00:55;;;;;;;4.38;3.63;;;9.90;99.90;;;9.29;79.00;100943.75;5049432;28;20086;-48
2021/04/22 02:03:22;;;;;;;4.03;3.63;;;9.80;99.90;;;9.22;78.68;100937.41;5038534;28;20040;-48
2021/04/22 02:05:49;;;;;;;4.78;3.25;;;9.80;99.90;;;9.19;79.08;100948.03;5049456;28;20028;-47
2021/04/22 02:08:15;;;;;;;4.32;3.50;;;9.70;99.90;;;9.14;78.82;100943.22;5049676;28;20033;-47
2021/04/22 02:10:43;;;;;;;4.22;3.53;;;9.70;99.90;;;9.15;78.98;100946.63;5049551;28;20139;-50
2021/04/22 02:13:13;;;;;;;4.05;3.60;;;9.70;99.90;;;9.12;79.17;100939.06;5049195;28;20090;-48
2021/04/22 02:15:40;;;;;;;4.53;3.00;;;9.70;99.90;;;9.08;79.27;100942.88;5049156;28;20454;-45
2021/04/22 02:18:06;;;;;;;5.75;3.13;;;9.70;99.90;;;9.04;79.35;100944.06;5031108;28;20039;-44
2021/04/22 02:20:33;;;;;;;6.95;3.35;;;9.60;99.90;;;9.02;79.44;100935.56;5049385;28;20044;-50
2021/04/22 02:22:59;;;;;;;4.35;3.22;;;9.60;99.90;;;8.96;79.75;100937.72;5049062;28;20728;-44
2021/04/22 02:25:28;;;;;;;5.28;3.20;;;9.50;99.90;;;8.89;79.94;100931.38;5049179;28;20112;-46
2021/04/22 02:27:55;;;;;;;9.38;3.97;;;9.50;99.90;;;8.85;80.04;100927.38;5048815;28;20107;-49
2021/04/22 02:30:32;;;;;;;4.05;3.28;;;9.40;99.90;;;8.80;80.75;100924.31;5048876;28;20039;-49
2021/04/22 02:33:05;;;;;;;5.40;3.88;;;9.40;99.90;;;8.77;81.35;100921.13;5048879;28;20128;-49
2021/04/22 02:35:37;;;;;;;4.80;3.78;;;9.40;99.90;;;8.75;80.63;100926.44;5048978;28;20166;-48
2021/04/22 02:38:06;;;;;;;5.30;3.50;;;9.30;99.90;;;8.71;80.63;100922.44;5048673;28;20399;-49
2021/04/22 02:43:12;;;;;;;3.42;2.92;;;9.30;99.90;;;8.67;81.00;100931.41;5110331;22;20115;-49
2021/04/22 02:45:47;;;;;;;4.57;4.07;;;9.30;99.90;;;8.62;81.04;100920.56;5068642;28;20093;-48
2021/04/22 02:48:13;;;;;;;4.28;3.60;;;9.20;99.90;;;8.60;81.12;100918.06;5068576;28;20052;-46
2021/04/22 02:50:44;;;;;;;6.50;3.58;;;9.20;99.90;;;8.57;81.38;100925.28;5068813;28;20052;-49
2021/04/22 02:53:10;;;;;;;5.07;3.88;;;9.10;99.90;;;8.55;81.54;100927.16;5068820;28;20132;-49
2021/04/22 02:55:36;;;;;;;4.50;3.90;;;9.10;99.90;;;8.56;81.21;100928.81;5068536;28;20399;-48
2021/04/22 02:58:03;;;;;;;7.85;3.20;;;9.10;99.90;;;8.54;81.44;100925.50;5068326;28;20025;-52
2021/04/22 03:00:29;;;;;;;4.75;4.05;;;9.10;99.90;;;8.50;81.84;100921.53;5068253;28;20535;-47
2021/04/22 03:02:55;;;;;;;4.57;3.83;;;9.00;99.90;;;8.51;81.59;100920.56;5050642;28;20035;-44
2021/04/22 03:05:21;;;;;;;6.78;3.75;;;9.10;99.90;;;8.49;81.38;100917.28;5068385;28;20156;-44
2021/04/22 03:07:47;;;;;;;3.88;3.50;;;9.10;99.90;;;8.46;82.16;100923.53;5068473;28;20029;-45
2021/04/22 03:10:17;;;;;;;4.57;3.75;;;9.00;99.90;;;8.40;81.70;100920.59;5068266;28;20064;-50
2021/04/22 03:12:43;;;;;;;4.72;3.50;;;9.00;99.90;;;8.36;82.25;100924.38;5068171;28;20111;-44
2021/04/22 03:15:10;;;;;;;5.65;3.97;;;9.00;99.90;;;8.32;82.11;100921.16;5067951;28;20428;-49
2021/04/22 03:17:36;;;;;;;4.28;3.88;;;8.90;99.90;;;8.28;82.53;100922.34;5067911;28;20067;-46
2021/04/22 03:20:05;;;;;;;7.80;4.53;;;8.90;99.90;;;8.26;82.69;100935.44;5067920;28;20036;-46
2021/04/22 03:22:32;;;;;;;4.78;4.10;;;8.80;99.90;;;8.19;82.43;100929.06;5068120;28;20060;-50
2021/04/22 03:25:03;;;;;;;5.10;4.15;;;8.80;99.90;;;8.12;82.69;100927.03;5067851;28;20147;-47
2021/04/22 03:27:29;;;;;;;7.85;5.47;;;8.70;99.90;;;8.09;83.23;100933.28;5067784;28;20067;-43
2021/04/22 03:29:57;;;;;;;4.82;4.38;;;8.70;99.90;;;8.14;83.56;100932.94;5068009;28;20496;-45
2021/04/22 03:32:24;;;;;;;5.03;4.35;;;8.70;99.90;;;8.14;83.22;100944.16;5068112;28;20043;-45
2021/04/22 03:34:50;;;;;;;6.38;4.80;;;8.70;99.90;;;8.13;83.31;100939.91;5067775;28;20028;-43
2021/04/22 03:37:16;;;;;;;7.28;4.50;;;8.70;99.90;;;8.11;83.18;100938.38;5067977;28;20505;-42
2021/04/22 03:39:42;;;;;;;6.82;4.22;;;8.70;99.90;;;8.04;83.20;100937.19;5068126;28;20086;-44
2021/04/22 03:42:08;;;;;;;6.68;4.65;;;8.60;99.90;;;7.98;83.24;100943.69;5067172;28;20120;-45
2021/04/22 03:44:35;;;;;;;6.20;4.28;;;8.50;99.90;;;7.91;83.55;100951.09;5067710;28;20048;-47
2021/04/22 03:47:01;;;;;;;9.70;4.25;;;8.50;99.90;;;7.85;84.10;100943.78;5067688;28;20059;-45
2021/04/22 03:49:27;;;;;;;7.43;4.53;;;8.50;99.90;;;7.74;84.12;100946.34;5067387;28;20032;-47
2021/04/22 03:51:53;;;;;;;5.05;4.55;;;8.40;99.90;;;7.68;85.04;100945.97;5067975;28;20034;-47
2021/04/22 03:54:19;;;;;;;5.20;4.47;;;8.30;99.90;;;7.71;84.82;100945.75;5067366;28;20080;-45
2021/04/22 03:56:45;;;;;;;7.28;4.38;;;8.30;99.90;;;7.71;84.48;100948.34;5067197;28;20039;-47
2021/04/22 03:59:12;;;;;;;6.63;4.93;;;8.30;99.90;;;7.69;84.48;100947.63;5067590;28;20483;-46
2021/04/22 04:01:38;;;;;;;8.10;4.70;;;8.30;99.90;;;7.63;84.92;100952.31;5066736;28;20036;-47
2021/04/22 04:04:04;;;;;;;11.45;5.40;;;8.20;99.90;;;7.57;85.15;100949.34;5067102;28;20127;-48
2021/04/22 04:06:31;;;;;;;7.85;6.25;;;8.20;99.90;;;7.54;85.56;100949.63;5067131;28;20028;-49
2021/04/22 04:08:58;;;;;;;10.23;5.47;;;8.10;99.90;;;7.61;85.42;100943.00;5067216;28;20052;-50
2021/04/22 04:11:24;;;;;;;7.47;5.57;;;8.20;99.90;;;7.69;85.08;100942.44;5066974;28;20024;-50
2021/04/22 04:13:51;;;;;;;8.50;6.03;;;8.20;99.90;;;7.68;85.25;100956.34;5067097;28;20028;-47
2021/04/22 04:16:17;;;;;;;9.50;7.70;;;8.20;99.90;;;7.68;85.25;100954.59;5067376;28;20025;-47
2021/04/22 04:18:43;;;;;;;9.65;6.80;;;8.30;99.90;;;7.73;85.29;100956.84;5067314;28;20043;-45
2021/04/22 04:21:09;;;;;;;15.10;7.18;;;8.30;99.90;;;7.76;85.13;100959.19;5067103;28;20396;-47
2021/04/22 04:23:35;;;;;;;12.18;7.80;;;8.30;99.90;;;7.80;84.92;100965.81;5067044;28;20093;-47
2021/04/22 04:26:01;;;;;;;13.38;7.88;;;8.30;99.90;;;7.82;84.86;100950.97;5066790;28;20038;-50
2021/04/22 04:28:26;;;;;;;9.18;7.15;;;8.30;99.90;;;7.86;85.02;100960.19;5067168;28;20088;-44
2021/04/22 04:30:52;;;;;;;8.70;6.55;;;8.40;99.90;;;7.96;84.79;100961.97;5067279;28;20157;-46
2021/04/22 04:33:18;;;;;;;11.13;6.63;;;8.50;99.90;;;8.02;84.93;100958.09;5066891;28;20396;-46
2021/04/22 04:35:44;;;;;;;12.23;6.25;;;8.60;99.90;;;8.08;84.35;100960.19;5067028;28;20044;-44
2021/04/22 04:38:10;;;;;;;7.03;6.32;;;8.60;99.90;;;8.16;84.34;100968.22;5066921;28;20036;-49
2021/04/22 04:40:36;;;;;;;6.75;5.47;;;8.70;99.90;;;8.25;83.76;100966.69;5066948;28;20459;-44
2021/04/22 04:43:03;;;;;;;6.35;4.78;;;8.80;99.90;;;8.31;83.44;100972.25;5066670;28;20098;-48
2021/04/22 04:45:29;;;;;;;7.43;4.60;;;8.90;99.90;;;8.37;82.79;100977.97;5066797;28;20154;-46
2021/04/22 04:47:55;;;;;;;5.40;4.05;;;8.90;99.90;;;8.43;82.80;100974.88;5066885;28;20062;-48
2021/04/22 04:50:21;;;;;;;5.07;4.03;;;9.00;99.90;;;8.56;82.04;100975.56;5066714;28;20025;-46
2021/04/22 04:52:48;;;;;;;6.25;4.55;;;9.10;99.90;;;8.61;82.03;100968.25;5066716;28;20300;-44
2021/04/22 04:55:15;;;;;;;6.60;5.82;;;9.20;99.90;;;8.58;82.49;100968.50;5066530;28;20032;-43
2021/04/22 04:57:42;;;;;;;10.02;6.55;;;9.30;99.90;;;8.64;82.47;100975.81;5066922;28;20115;-44
2021/04/22 05:00:11;;;;;;;10.25;6.25;;;9.30;99.90;;;8.81;81.76;100977.09;5066548;28;20484;-47
2021/04/22 05:02:37;;;;;;;5.40;3.72;;;9.50;99.90;;;8.87;81.36;100977.44;5067049;28;20053;-49
2021/04/22 05:05:05;;;;;;;5.10;3.78;;;9.60;99.90;;;9.13;80.75;100983.16;5066603;28;20238;-46
2021/04/22 05:07:32;;;;;;;4.35;3.10;;;9.80;99.90;;;9.37;79.37;100987.34;5066382;28;20036;-50
2021/04/22 05:09:58;;;;;;;5.80;3.58;;;10.00;99.90;;;9.41;78.80;100992.16;5066804;28;20109;-45
2021/04/22 05:12:24;;;;;;;4.45;3.08;;;10.10;99.90;;;9.37;79.33;100990.75;5066393;28;20503;-48
2021/04/22 05:14:51;;;;;;;5.30;4.07;;;10.10;99.90;;;9.37;79.10;100993.38;5069346;28;20032;-48
2021/04/22 05:17:18;;;;;;;6.50;5.00;;;10.10;99.90;;;9.41;79.19;100989.56;5070592;28;20508;-49
2021/04/22 05:19:45;;;;;;;5.57;4.82;;;10.10;99.90;;;9.39;79.55;100995.84;5070330;28;20102;-49
2021/04/22 05:22:11;;;;;;;11.68;6.60;;;10.10;99.90;;;9.45;79.24;100996.16;5070118;28;20143;-46
2021/04/22 05:24:38;;;;;;;12.63;7.45;;;10.20;99.90;;;9.40;79.65;101002.69;5070264;28;20040;-46
2021/04/22 05:27:04;;;;;;;7.00;6.30;;;10.20;99.90;;;9.49;79.05;101005.34;5070294;28;20105;-45
2021/04/22 05:29:30;;;;;;;6.32;4.60;;;10.20;99.90;;;9.47;78.93;101006.44;5069997;28;20383;-45
2021/04/22 05:31:56;;;;;;;20.60;4.88;;;10.10;99.90;;;9.51;78.35;101016.47;5070249;28;20032;-46
2021/04/22 05:34:22;;;;;;;5.88;4.70;;;10.10;99.90;;;9.54;78.06;101005.81;5069767;28;20025;-43
2021/04/22 05:36:48;;;;;;;7.30;4.13;;;10.10;99.90;;;9.47;78.26;101004.66;5069826;28;20040;-48
2021/04/22 05:39:14;;;;;;;5.45;3.65;;;10.10;99.90;;;9.46;78.23;101008.19;5069960;28;20025;-49
2021/04/22 05:41:40;;;;;;;7.07;4.80;;;10.10;99.90;;;9.63;77.67;101015.47;5069691;28;20596;-45
2021/04/22 05:44:06;;;;;;;7.72;5.35;;;10.20;99.90;;;9.82;77.24;101011.38;5069854;28;20111;-46
2021/04/22 05:46:32;;;;;;;10.35;5.40;;;10.30;99.90;;;10.29;76.66;101016.06;5069754;28;20040;-46
2021/04/22 05:48:58;;;;;;;8.20;4.40;;;10.70;99.90;;;11.54;73.24;101005.13;5069633;28;20573;-50
2021/04/22 05:51:25;;;;;;;5.47;4.20;;;12.50;99.90;;;12.38;70.46;101004.44;5069598;28;20028;-49
2021/04/22 05:53:51;;;;;;;5.72;3.28;;;14.00;99.90;;;13.43;66.63;101003.03;5070008;28;20432;-49
2021/04/22 05:56:17;;;;;;;5.05;3.45;;;15.80;98.40;;;12.76;68.02;101001.66;5069936;28;20036;-49
2021/04/22 05:58:43;;;;;;;4.70;3.75;;;14.70;99.00;;;12.25;69.28;101010.00;5070047;28;20044;-46
2021/04/22 06:01:09;;;;;;;4.60;2.95;;;13.80;99.90;;;12.56;69.11;101010.56;5069415;28;20033;-44
2021/04/22 06:03:35;;;;;;;4.10;2.80;;;13.80;99.90;;;13.98;64.77;101005.44;5069384;28;20086;-44
2021/04/22 06:06:00;;;;;;;4.25;2.88;;;16.00;97.80;;;13.77;64.61;101003.16;5069467;28;20105;-45
2021/04/22 06:08:26;;;;;;;4.47;3.55;;;15.90;94.70;;;13.77;64.79;101007.56;5069367;28;20545;-44
2021/04/22 06:10:52;;;;;;;5.88;2.63;;;15.60;96.90;;;14.40;62.32;101010.75;5069099;28;20048;-48
2021/04/22 06:13:18;;;;;;;4.85;3.80;;;16.60;92.00;;;14.50;62.68;101011.50;5069207;28;20056;-50
2021/04/22 06:15:44;;;;;;;10.52;3.85;;;16.80;91.00;;;14.70;61.35;101012.06;5069138;28;20098;-49
2021/04/22 06:18:11;;;;;;;6.28;4.82;;;17.20;87.90;;;14.41;62.29;101006.34;5069171;28;20040;-43
2021/04/22 06:20:37;;;;;;;10.65;5.45;;;16.80;86.50;;;13.46;64.42;101010.59;5069094;28;20460;-44
2021/04/22 06:23:03;;;;;;;6.95;5.32;;;15.50;91.10;;;13.65;64.85;101016.66;5069300;28;20388;-46
2021/04/22 06:25:30;;;;;;;8.23;5.80;;;15.30;94.90;;;15.56;60.01;101010.00;5068618;28;20037;-45
2021/04/22 06:27:58;;;;;;;7.57;5.70;;;18.20;86.70;;;16.34;57.30;101013.84;5069054;28;20029;-45
2021/04/22 06:30:27;;;;;;;6.70;5.50;;;19.60;74.30;;;16.37;56.90;101011.69;5068830;28;20055;-48
2021/04/22 06:32:54;;;;;;;8.68;5.72;;;20.20;69.70;;;16.50;56.13;101014.63;5068820;28;20064;-44
2021/04/22 06:35:22;;;;;;;7.95;6.57;;;20.20;67.00;;;16.76;55.77;101006.47;5069041;28;20389;-48
2021/04/22 06:37:49;;;;;;;10.30;6.90;;;20.30;68.20;;;17.27;54.19;101006.84;5069195;28;20447;-44
2021/04/22 06:40:19;;;;;;;15.75;6.63;;;21.00;63.60;;;17.37;53.73;101010.06;5068805;28;20026;-45
2021/04/22 06:42:45;;;;;;;10.55;6.70;;;20.90;65.10;;;18.05;52.49;101006.53;5068471;28;20133;-45
2021/04/22 06:45:13;;;;;;;9.75;7.13;;;22.10;61.40;;;18.58;50.34;101012.56;5068696;28;20403;-47
2021/04/22 06:47:43;;;;;;;7.95;6.10;;;22.90;58.00;;;18.89;49.34;101015.00;5062969;28;20480;-48
2021/04/22 06:50:13;;;;;;;12.43;6.25;;;23.10;57.10;;;17.92;50.61;101005.53;5048370;28;20519;-45
2021/04/22 06:52:39;;;;;;;7.10;6.25;;;21.80;58.00;;;16.48;54.18;101021.88;5048412;28;20124;-45
2021/04/22 06:55:14;;;;;;;8.52;7.68;;;19.20;64.50;;;15.04;57.85;101024.34;5046801;28;20040;-46
2021/04/22 06:57:40;;;;;;;12.82;8.23;;;17.40;70.10;;;14.20;60.43;101025.88;5047128;28;20054;-48
2021/04/22 07:00:20;;;;;;;10.35;8.30;;;16.20;75.70;;;15.34;56.84;101031.59;5047822;28;20032;-45
2021/04/22 07:02:47;;;;;;;11.20;6.40;;;16.60;75.60;;;16.10;54.23;101023.41;5048588;28;20154;-44
2021/04/22 07:05:15;;;;;;;11.40;6.68;;;16.90;75.40;;;15.91;54.99;101023.78;5048817;28;20120;-49
2021/04/22 07:07:41;;;;;;;7.43;5.32;;;16.80;76.80;;;15.62;55.93;101026.06;5031011;28;20484;-47
2021/04/22 07:10:09;;;;;;;6.03;4.40;;;16.70;78.00;;;15.87;55.13;101025.09;5047730;28;20021;-47
2021/04/22 07:12:34;;;;;;;7.05;4.10;;;16.60;78.90;;;15.63;55.74;101027.72;5062786;22;20396;-45
2021/04/22 07:15:01;;;;;;;6.18;2.97;;;16.50;79.30;;;15.29;56.46;101028.63;5067996;28;20033;-47
2021/04/22 07:17:27;;;;;;;9.15;4.45;;;16.20;80.60;;;15.15;57.58;101024.84;5067942;28;20459;-48
2021/04/22 07:19:56;;;;;;;13.02;5.60;;;16.20;82.20;;;14.72;58.95;101030.28;5067727;28;20136;-49
2021/04/22 07:22:24;;;;;;;6.88;3.70;;;15.90;84.20;;;14.21;60.10;101022.28;5067830;28;20028;-45
2021/04/22 07:24:51;;;;;;;6.60;5.45;;;15.40;86.00;;;14.00;61.03;101034.94;5067874;28;20152;-49
2021/04/22 07:27:17;;;;;;;10.80;3.67;;;15.10;88.80;;;13.79;61.48;101027.38;5061819;28;20063;-47
2021/04/22 07:29:47;;;;;;;6.40;2.70;;;14.90;90.90;;;13.97;61.01;101027.38;5061838;28;20484;-48
2021/04/22 07:32:15;;;;;;;6.47;3.53;;;14.80;92.00;;;14.02;60.99;101030.34;5050686;28;20025;-46
2021/04/22 07:34:42;;;;;;;7.93;3.92;;;14.80;92.80;;;14.04;61.24;101027.59;5061762;28;20080;-48
2021/04/22 07:37:08;;;;;;;5.32;3.08;;;14.80;93.60;;;14.13;61.12;101024.88;5056690;28;20056;-51
2021/04/22 07:39:34;;;;;;;7.18;2.88;;;14.90;94.20;;;14.74;59.69;101029.13;5066691;28;20032;-50
2021/04/22 07:42:00;;;;;;;16.05;3.33;;;15.30;94.10;;;15.71;57.22;101033.78;5033316;28;20044;-50
2021/04/22 07:44:26;;;;;;;5.05;1.40;;;16.00;93.20;;;16.43;55.13;101025.97;5066787;28;20036;-49
2021/04/22 07:46:52;;;;;;;2.92;0.73;;;16.70;91.10;;;17.11;53.17;101025.38;5051410;28;20040;-52
2021/04/22 07:49:18;;;;;;;2.75;1.35;;;17.40;89.10;;;17.17;52.99;101019.41;5065875;28;20349;-50
2021/04/22 07:51:45;;;;;;;3.05;0.73;;;17.70;85.50;;;17.09;53.20;101020.28;5067257;28;20401;-49
2021/04/22 07:54:11;;;;;;;4.20;1.10;;;17.90;83.50;;;16.64;54.47;101023.63;5066556;28;20033;-50
2021/04/22 07:56:38;;;;;;;2.92;1.55;;;17.50;83.40;;;17.11;53.59;101025.38;5056907;28;20068;-53
2021/04/22 07:59:04;;;;;;;2.72;0.50;;;17.60;84.40;;;16.72;55.23;101012.25;5065112;28;20033;-48
2021/04/22 08:01:31;;;;;;;3.85;1.02;;;17.60;84.60;;;16.42;55.51;101022.53;5067045;28;20123;-49
2021/04/22 08:03:57;;;;;;;3.22;0.80;;;17.30;85.20;;;16.48;55.65;101016.59;5066481;28;20034;-51
2021/04/22 08:06:23;;;;;;;3.70;0.90;;;17.20;85.70;;;16.76;55.04;101014.38;5066878;28;20413;-49
2021/04/22 08:08:49;;;;;;;3.42;0.75;;;17.30;86.50;;;16.82;54.59;101016.31;5065839;28;20488;-49
2021/04/22 08:11:15;;;;;;;4.93;0.80;;;17.50;84.80;;;16.70;55.03;101017.69;5066291;28;20568;-51
2021/04/22 08:13:41;;;;;;;5.15;0.75;;;17.50;84.00;;;16.37;55.92;101019.59;5065072;28;20162;-52
2021/04/22 08:16:08;;;;;;;2.90;0.80;;;17.30;85.10;;;16.20;56.29;101015.34;5067233;28;20201;-51
2021/04/22 08:18:34;;;;;;;2.92;1.15;;;17.00;85.40;;;16.36;56.32;101017.13;5065766;28;20401;-46
2021/04/22 08:21:01;;;;;;;2.97;1.10;;;17.10;86.80;;;16.47;55.77;101020.22;5064381;28;20502;-47
2021/04/22 08:23:31;;;;;;;1.75;0.95;;;17.10;86.70;;;16.55;55.78;101016.72;5065844;28;20036;-49
2021/04/22 08:26:02;;;;;;;1.90;0.65;;;17.20;87.10;;;16.73;54.61;101008.63;5065667;28;20383;-45
2021/04/22 08:28:30;;;;;;;2.08;0.80;;;17.30;86.10;;;17.11;53.68;101015.66;5059440;28;20040;-48
2021/04/22 08:31:03;;;;;;;2.00;0.88;;;17.50;84.00;;;17.23;53.27;101008.19;5066046;28;20059;-48
2021/04/22 08:33:33;;;;;;;2.72;0.60;;;17.60;84.30;;;17.63;52.57;101014.16;5064484;28;20451;-49
2021/04/22 08:35:59;;;;;;;1.95;0.63;;;18.00;83.60;;;17.02;54.17;101016.69;5066105;28;20126;-49
2021/04/22 08:38:25;;;;;;;3.28;0.80;;;17.90;81.90;;;16.25;56.19;101016.50;5046605;28;20040;-48
2021/04/22 08:40:54;;;;;;;2.42;0.60;;;17.30;84.10;;;15.99;57.10;101021.16;5046430;28;20082;-50
2021/04/22 08:43:22;;;;;;;2.33;0.60;;;16.90;86.40;;;15.96;57.36;101020.66;5046776;28;20037;-48
2021/04/22 08:45:49;;;;;;;2.65;0.82;;;16.90;87.50;;;15.72;57.85;101029.38;5047314;28;20040;-48
2021/04/22 08:48:15;;;;;;;4.20;1.27;;;16.70;87.80;;;15.96;57.23;101031.19;5049430;28;20119;-50
2021/04/22 08:50:46;;;;;;;2.47;0.75;;;16.60;89.30;;;16.26;56.50;101019.94;5050270;28;20037;-50
2021/04/22 08:53:16;;;;;;;2.50;1.02;;;16.80;89.20;;;16.34;56.29;101019.94;5051476;28;20025;-50
2021/04/22 08:55:44;;;;;;;1.50;0.60;;;17.10;88.40;;;16.38;56.28;101025.66;5050902;28;20400;-52
2021/04/22 08:58:10;;;;;;;4.35;0.50;;;17.10;87.80;;;16.41;56.01;101030.59;5061873;28;20098;-48
2021/04/22 09:00:57;;;;;;;3.55;0.55;;;17.00;88.00;;;16.68;55.33;101032.81;5050463;28;20044;-49
2021/04/22 09:03:24;;;;;;;2.05;0.60;;;17.20;88.10;;;17.32;53.32;101025.59;5050623;28;20041;-51
2021/04/22 09:05:52;;;;;;;2.72;0.60;;;17.60;85.00;;;18.10;51.45;101022.66;5065324;28;20591;-50
2021/04/22 09:08:20;;;;;;;2.30;0.73;;;18.20;83.80;;;18.96;49.51;101025.63;5067131;28;20040;-47
2021/04/22 09:10:46;;;;;;;4.07;0.65;;;19.00;81.00;;;19.55;47.70;101021.81;5071843;28;20157;-50
2021/04/22 09:13:17;;;;;;;2.15;0.40;;;19.60;76.80;;;19.98;46.73;101016.44;5065727;28;20076;-49
2021/04/22 09:15:48;;;;;;;1.58;0.50;;;20.10;75.00;;;19.98;45.78;101019.09;5070283;28;20032;-47
2021/04/22 09:18:17;;;;;;;0.80;0.40;;;20.40;72.00;;;20.52;45.06;101013.16;5070093;28;20400;-52
2021/04/22 09:20:51;;;;;;;2.25;0.60;;;20.70;71.00;;;19.83;45.97;101010.47;5052502;28;20035;-48
2021/04/22 09:23:27;;;;;;;2.85;0.52;;;20.60;68.70;;;19.54;47.00;101020.16;5070216;28;20036;-49
2021/04/22 09:26:06;;;;;;;2.30;0.45;;;20.40;69.80;;;19.94;46.12;101015.19;5070073;28;20044;-51
2021/04/22 09:28:46;;;;;;;3.03;0.50;;;20.50;70.20;;;20.52;44.83;101006.03;5070045;28;20025;-51
2021/04/22 09:31:25;;;;;;;1.23;0.63;;;20.90;68.40;;;21.03;42.69;101007.44;5069955;28;20443;-50
2021/04/22 09:34:27;;;;;;;3.60;0.47;;;21.40;65.50;;;21.60;41.77;101011.41;5070061;28;20108;-49
2021/04/22 09:36:54;;;;;;;2.60;0.65;;;22.00;64.20;;;21.91;42.00;101003.66;4987647;28;20038;-48
2021/04/22 09:39:27;;;;;;;2.88;0.47;;;22.40;64.00;;;21.77;41.46;101007.31;4976865;28;20062;-49
2021/04/22 09:42:00;;;;;;;2.17;0.45;;;22.50;62.50;;;20.48;44.21;101010.06;4987517;28;20132;-46
2021/04/22 09:44:27;;;;;;;1.75;0.40;;;21.70;63.00;;;20.40;44.76;101004.13;4987612;28;20394;-48
2021/04/22 09:47:10;;;;;;;2.45;0.38;;;21.40;64.10;;;20.95;43.08;101002.31;4987459;28;20038;-48
2021/04/22 09:50:01;;;;;;;2.65;0.47;;;21.60;63.10;;;20.65;43.77;101004.44;4987563;28;20148;-53
2021/04/22 09:52:39;;;;;;;0.75;0.40;;;21.60;63.10;;;21.09;42.91;101007.44;4987763;28;20081;-49
2021/04/22 09:55:11;;;;;;;2.90;0.40;;;21.70;63.20;;;21.28;43.18;101005.88;4987296;28;20162;-51
2021/04/22 09:57:37;;;;;;;2.60;0.55;;;21.80;63.20;;;20.67;43.67;101008.53;4987762;28;20082;-51
2021/04/22 10:00:19;;;;;;;1.23;0.50;;;21.40;62.30;;;19.97;42.98;101000.78;4986547;28;20475;-46
2021/04/22 10:02:57;;;;;;;2.08;0.73;;;20.90;61.70;;;19.81;43.81;101004.53;4987582;28;20126;-46
2021/04/22 10:05:32;;;;;;;2.20;0.55;;;20.50;63.40;;;18.81;46.67;101008.00;4987117;28;20536;-49
2021/04/22 10:08:16;;;;;;;3.85;0.80;;;19.70;65.70;;;18.01;49.26;100994.72;4987249;28;20431;-50
2021/04/22 10:11:06;;;;;;;2.17;0.50;;;19.00;68.50;;;17.96;48.98;100991.78;5019825;28;20114;-49
2021/04/22 10:13:49;;;;;;;2.20;0.55;;;19.00;68.60;;;18.52;46.96;101000.09;5068618;28;20055;-54
2021/04/22 10:16:15;;;;;;;1.98;0.57;;;19.00;67.40;;;18.51;48.36;100995.81;5049744;28;20392;-48
2021/04/22 10:18:45;;;;;;;1.80;0.77;;;19.00;69.20;;;18.95;46.45;100990.47;5067650;28;20410;-53
2021/04/22 10:21:13;;;;;;;3.17;0.50;;;19.50;66.80;;;19.12;46.38;100988.44;5062756;28;20028;-47
2021/04/22 10:23:39;;;;;;;2.03;0.65;;;19.50;67.60;;;18.62;46.51;100984.81;5067266;28;20032;-50
2021/04/22 10:26:19;;;;;;;2.70;0.57;;;19.60;66.00;;;18.98;45.83;100981.38;5054914;28;20067;-48